sensor_id;sensor_type;location;lat;lon;timestamp;pressure;altitude;pressure_sealevel;temperature;humidity
6453;BME280;3259;51.080;13.712;2023-11-22T00:00:14;100972.00;;;23.86;36.14
6453;BME280;3259;51.080;13.712;2023-11-22T00:03:03;100968.50;;;23.86;36.01
6453;BME280;3259;51.080;13.712;2023-11-22T00:05:52;100975.47;;;23.87;35.87
6453;BME280;3259;51.080;13.712;2023-11-22T00:08:40;100970.50;;;23.84;36.01
6453;BME280;3259;51.080;13.712;2023-11-22T00:11:29;100975.31;;;23.80;35.96
6453;BME280;3259;51.080;13.712;2023-11-22T00:14:19;100974.66;;;23.78;36.38
6453;BME280;3259;51.080;13.712;2023-11-22T00:17:08;100981.16;;;23.84;36.23
6453;BME280;3259;51.080;13.712;2023-11-22T00:19:57;100984.31;;;23.79;35.91
6453;BME280;3259;51.080;13.712;2023-11-22T00:22:47;100979.84;;;23.80;36.18
6453;BME280;3259;51.080;13.712;2023-11-22T00:25:39;100979.84;;;23.80;36.32
6453;BME280;3259;51.080;13.712;2023-11-22T00:28:28;100974.50;;;23.80;36.14
6453;BME280;3259;51.080;13.712;2023-11-22T00:31:18;100975.84;;;23.84;36.00
6453;BME280;3259;51.080;13.712;2023-11-22T00:34:07;100983.31;;;23.80;36.07
6453;BME280;3259;51.080;13.712;2023-11-22T00:36:55;100979.84;;;23.80;36.26
6453;BME280;3259;51.080;13.712;2023-11-22T00:39:44;100977.34;;;23.78;36.33
6453;BME280;3259;51.080;13.712;2023-11-22T00:42:33;100990.84;;;23.77;35.88
6453;BME280;3259;51.080;13.712;2023-11-22T00:45:22;100985.97;;;23.80;36.17
6453;BME280;3259;51.080;13.712;2023-11-22T00:48:12;100993.69;;;23.75;36.14
6453;BME280;3259;51.080;13.712;2023-11-22T00:51:01;101003.47;;;23.83;35.69
6453;BME280;3259;51.080;13.712;2023-11-22T00:53:55;101007.34;;;23.72;36.37
6453;BME280;3259;51.080;13.712;2023-11-22T00:56:44;101009.16;;;23.72;36.45
6453;BME280;3259;51.080;13.712;2023-11-22T00:59:32;101008.81;;;23.75;35.94
6453;BME280;3259;51.080;13.712;2023-11-22T01:02:21;101018.66;;;23.74;36.01
6453;BME280;3259;51.080;13.712;2023-11-22T01:05:11;101019.16;;;23.78;36.09
6453;BME280;3259;51.080;13.712;2023-11-22T01:08:03;101030.97;;;23.75;35.74
6453;BME280;3259;51.080;13.712;2023-11-22T01:10:51;101032.13;;;23.73;36.09
6453;BME280;3259;51.080;13.712;2023-11-22T01:13:40;101027.66;;;23.73;35.72
6453;BME280;3259;51.080;13.712;2023-11-22T01:16:30;101039.97;;;23.74;35.64
6453;BME280;3259;51.080;13.712;2023-11-22T01:19:19;101041.13;;;23.72;35.85
6453;BME280;3259;51.080;13.712;2023-11-22T01:22:09;101041.13;;;23.72;35.95
6453;BME280;3259;51.080;13.712;2023-11-22T01:24:57;101061.78;;;23.70;36.12
6453;BME280;3259;51.080;13.712;2023-11-22T01:27:46;101064.81;;;23.67;35.95
6453;BME280;3259;51.080;13.712;2023-11-22T01:30:35;101071.13;;;23.66;35.90
6453;BME280;3259;51.080;13.712;2023-11-22T01:33:24;101058.78;;;23.73;36.08
6453;BME280;3259;51.080;13.712;2023-11-22T01:36:14;101055.09;;;23.74;36.17
6453;BME280;3259;51.080;13.712;2023-11-22T01:39:04;101067.78;;;23.72;36.16
6453;BME280;3259;51.080;13.712;2023-11-22T01:41:53;101074.94;;;23.71;36.01
6453;BME280;3259;51.080;13.712;2023-11-22T01:44:43;101079.41;;;23.79;35.96
6453;BME280;3259;51.080;13.712;2023-11-22T01:47:31;101078.06;;;23.75;35.56
6453;BME280;3259;51.080;13.712;2023-11-22T01:50:20;101074.75;;;23.73;35.85
6453;BME280;3259;51.080;13.712;2023-11-22T01:53:11;101078.06;;;23.75;35.85
6453;BME280;3259;51.080;13.712;2023-11-22T01:56:01;101078.44;;;23.72;36.06
6453;BME280;3259;51.080;13.712;2023-11-22T01:58:50;101077.75;;;23.78;35.92
6453;BME280;3259;51.080;13.712;2023-11-22T02:01:42;101074.75;;;23.73;35.75
6453;BME280;3259;51.080;13.712;2023-11-22T02:04:31;101073.75;;;23.74;35.96
6453;BME280;3259;51.080;13.712;2023-11-22T02:07:20;101076.75;;;23.71;36.10
6453;BME280;3259;51.080;13.712;2023-11-22T02:10:08;101069.78;;;23.70;35.79
6453;BME280;3259;51.080;13.712;2023-11-22T02:12:59;101071.44;;;23.71;35.57
6453;BME280;3259;51.080;13.712;2023-11-22T02:15:51;101070.44;;;23.64;35.86
6453;BME280;3259;51.080;13.712;2023-11-22T02:18:43;101068.13;;;23.69;35.84
6453;BME280;3259;51.080;13.712;2023-11-22T02:21:32;101073.44;;;23.69;35.84
6453;BME280;3259;51.080;13.712;2023-11-22T02:24:22;101075.09;;;23.70;36.00
6453;BME280;3259;51.080;13.712;2023-11-22T02:27:11;101096.78;;;23.67;35.94
6453;BME280;3259;51.080;13.712;2023-11-22T02:29:59;101103.75;;;23.68;36.00
6453;BME280;3259;51.080;13.712;2023-11-22T02:32:52;101100.09;;;23.69;35.92
6453;BME280;3259;51.080;13.712;2023-11-22T02:35:41;101094.75;;;23.69;35.82
6453;BME280;3259;51.080;13.712;2023-11-22T02:38:29;101107.06;;;23.70;35.57
6453;BME280;3259;51.080;13.712;2023-11-22T02:41:19;101105.41;;;23.69;35.89
6453;BME280;3259;51.080;13.712;2023-11-22T02:44:08;101112.75;;;23.67;35.62
6453;BME280;3259;51.080;13.712;2023-11-22T02:46:57;101120.75;;;23.59;35.80
6453;BME280;3259;51.080;13.712;2023-11-22T02:49:46;101122.06;;;23.63;35.87
6453;BME280;3259;51.080;13.712;2023-11-22T02:52:35;101116.56;;;23.64;35.99
6453;BME280;3259;51.080;13.712;2023-11-22T02:55:24;101110.44;;;23.56;35.98
6453;BME280;3259;51.080;13.712;2023-11-22T02:58:15;101120.75;;;23.59;35.71
6453;BME280;3259;51.080;13.712;2023-11-22T03:01:04;101126.56;;;23.62;35.46
6453;BME280;3259;51.080;13.712;2023-11-22T03:03:54;101120.41;;;23.62;35.71
6453;BME280;3259;51.080;13.712;2023-11-22T03:06:43;101116.44;;;23.58;35.48
6453;BME280;3259;51.080;13.712;2023-11-22T03:09:32;101113.41;;;23.61;35.74
6453;BME280;3259;51.080;13.712;2023-11-22T03:12:21;101109.75;;;23.62;35.58
6453;BME280;3259;51.080;13.712;2023-11-22T03:15:11;101117.09;;;23.60;35.82
6453;BME280;3259;51.080;13.712;2023-11-22T03:18:00;101135.06;;;23.50;35.81
6453;BME280;3259;51.080;13.712;2023-11-22T03:20:50;101143.22;;;23.56;35.55
6453;BME280;3259;51.080;13.712;2023-11-22T03:23:41;101149.38;;;23.57;35.79
6453;BME280;3259;51.080;13.712;2023-11-22T03:26:30;101168.34;;;23.62;35.58
6453;BME280;3259;51.080;13.712;2023-11-22T03:29:19;101165.88;;;23.60;35.63
6453;BME280;3259;51.080;13.712;2023-11-22T03:32:09;101150.38;;;23.56;35.68
6453;BME280;3259;51.080;13.712;2023-11-22T03:34:58;101159.38;;;23.55;35.86
6453;BME280;3259;51.080;13.712;2023-11-22T03:37:47;101168.19;;;23.55;35.73
6453;BME280;3259;51.080;13.712;2023-11-22T03:40:35;101187.31;;;23.51;35.46
6453;BME280;3259;51.080;13.712;2023-11-22T03:43:24;101189.00;;;23.52;35.89
6453;BME280;3259;51.080;13.712;2023-11-22T03:46:13;101191.34;;;23.55;35.23
6453;BME280;3259;51.080;13.712;2023-11-22T03:49:03;101194.47;;;23.58;35.78
6453;BME280;3259;51.080;13.712;2023-11-22T03:51:54;101197.31;;;23.57;35.46
6453;BME280;3259;51.080;13.712;2023-11-22T03:54:43;101204.16;;;23.51;35.55
6453;BME280;3259;51.080;13.712;2023-11-22T03:57:31;101204.66;;;23.55;35.59
6453;BME280;3259;51.080;13.712;2023-11-22T04:00:20;101221.78;;;23.52;35.78
6453;BME280;3259;51.080;13.712;2023-11-22T04:03:11;101226.28;;;23.52;35.90
6453;BME280;3259;51.080;13.712;2023-11-22T04:06:01;101238.28;;;23.56;35.82
6453;BME280;3259;51.080;13.712;2023-11-22T04:08:50;101239.44;;;23.53;35.79
6453;BME280;3259;51.080;13.712;2023-11-22T04:11:40;101241.94;;;23.55;35.85
6453;BME280;3259;51.080;13.712;2023-11-22T04:14:28;101235.94;;;23.53;35.92
6453;BME280;3259;51.080;13.712;2023-11-22T04:17:17;101247.75;;;23.50;35.75
6453;BME280;3259;51.080;13.712;2023-11-22T04:20:08;101251.09;;;23.52;35.76
6453;BME280;3259;51.080;13.712;2023-11-22T04:22:58;101261.41;;;23.47;35.75
6453;BME280;3259;51.080;13.712;2023-11-22T04:25:47;101268.88;;;23.52;35.31
6453;BME280;3259;51.080;13.712;2023-11-22T04:28:37;101271.06;;;23.48;35.56
6453;BME280;3259;51.080;13.712;2023-11-22T04:31:25;101276.22;;;23.50;35.60
6453;BME280;3259;51.080;13.712;2023-11-22T04:34:14;101283.88;;;23.53;35.52
6453;BME280;3259;51.080;13.712;2023-11-22T04:37:03;101287.72;;;23.50;35.45
6453;BME280;3259;51.080;13.712;2023-11-22T04:39:55;101286.72;;;23.51;35.60
6453;BME280;3259;51.080;13.712;2023-11-22T04:42:43;101291.38;;;23.49;35.29
6453;BME280;3259;51.080;13.712;2023-11-22T04:45:32;101289.53;;;23.42;35.61
6453;BME280;3259;51.080;13.712;2023-11-22T04:48:21;101306.69;;;23.47;35.35
6453;BME280;3259;51.080;13.712;2023-11-22T04:51:10;101298.19;;;23.44;35.56
6453;BME280;3259;51.080;13.712;2023-11-22T04:53:59;101289.84;;;23.47;35.38
6453;BME280;3259;51.080;13.712;2023-11-22T04:56:49;101289.53;;;23.42;35.56
6453;BME280;3259;51.080;13.712;2023-11-22T04:59:38;101289.38;;;23.51;35.33
6453;BME280;3259;51.080;13.712;2023-11-22T05:02:27;101305.50;;;23.42;35.47
6453;BME280;3259;51.080;13.712;2023-11-22T05:05:16;101316.81;;;23.44;35.27
6453;BME280;3259;51.080;13.712;2023-11-22T05:08:05;101322.81;;;23.46;35.53
6453;BME280;3259;51.080;13.712;2023-11-22T05:10:53;101316.81;;;23.44;35.63
6453;BME280;3259;51.080;13.712;2023-11-22T05:13:44;101326.47;;;23.45;35.45
6453;BME280;3259;51.080;13.712;2023-11-22T05:16:33;101334.13;;;23.48;35.20
6453;BME280;3259;51.080;13.712;2023-11-22T05:19:22;101329.81;;;23.47;35.57
6453;BME280;3259;51.080;13.712;2023-11-22T05:22:10;101327.00;;;23.48;35.12
6453;BME280;3259;51.080;13.712;2023-11-22T05:24:59;101335.47;;;23.44;35.36
6453;BME280;3259;51.080;13.712;2023-11-22T05:27:48;101329.47;;;23.50;35.16
6453;BME280;3259;51.080;13.712;2023-11-22T05:30:39;101322.13;;;23.52;35.24
6453;BME280;3259;51.080;13.712;2023-11-22T05:33:27;101327.00;;;23.48;35.43
6453;BME280;3259;51.080;13.712;2023-11-22T05:36:16;101328.13;;;23.46;35.09
6453;BME280;3259;51.080;13.712;2023-11-22T05:39:05;101334.78;;;23.50;35.18
6453;BME280;3259;51.080;13.712;2023-11-22T05:41:53;101330.81;;;23.54;35.13
6453;BME280;3259;51.080;13.712;2023-11-22T05:44:43;101335.13;;;23.47;35.40
6453;BME280;3259;51.080;13.712;2023-11-22T05:47:33;101337.31;;;23.51;35.37
6453;BME280;3259;51.080;13.712;2023-11-22T05:50:22;101343.16;;;23.55;35.14
6453;BME280;3259;51.080;13.712;2023-11-22T05:53:11;101345.47;;;23.58;35.15
6453;BME280;3259;51.080;13.712;2023-11-22T05:56:06;101337.81;;;23.55;35.24
6453;BME280;3259;51.080;13.712;2023-11-22T05:58:57;101349.44;;;23.46;35.39
6453;BME280;3259;51.080;13.712;2023-11-22T06:01:46;101350.78;;;23.50;35.09
6453;BME280;3259;51.080;13.712;2023-11-22T06:04:36;101342.13;;;23.48;34.98
6453;BME280;3259;51.080;13.712;2023-11-22T06:07:27;101353.28;;;23.51;35.23
6453;BME280;3259;51.080;13.712;2023-11-22T06:10:16;101363.41;;;23.48;35.12
6453;BME280;3259;51.080;13.712;2023-11-22T06:13:05;101366.09;;;23.48;35.35
6453;BME280;3259;51.080;13.712;2023-11-22T06:15:54;101359.75;;;23.49;35.10
6453;BME280;3259;51.080;13.712;2023-11-22T06:18:43;101367.09;;;23.47;35.22
6453;BME280;3259;51.080;13.712;2023-11-22T06:21:33;101374.41;;;23.45;34.96
6453;BME280;3259;51.080;13.712;2023-11-22T06:24:23;101377.06;;;23.45;35.17
6453;BME280;3259;51.080;13.712;2023-11-22T06:27:14;101374.41;;;23.45;35.12
6453;BME280;3259;51.080;13.712;2023-11-22T06:30:03;101384.72;;;23.48;35.16
6453;BME280;3259;51.080;13.712;2023-11-22T06:32:53;101392.38;;;23.43;35.24
6453;BME280;3259;51.080;13.712;2023-11-22T06:35:43;101406.69;;;23.42;35.24
6453;BME280;3259;51.080;13.712;2023-11-22T06:38:33;101408.84;;;23.46;34.97
6453;BME280;3259;51.080;13.712;2023-11-22T06:41:22;101410.84;;;23.44;35.07
6453;BME280;3259;51.080;13.712;2023-11-22T06:44:10;101412.03;;;23.42;35.07
6453;BME280;3259;51.080;13.712;2023-11-22T06:47:00;101419.69;;;23.45;35.31
6453;BME280;3259;51.080;13.712;2023-11-22T06:49:48;101432.31;;;23.43;35.37
6453;BME280;3259;51.080;13.712;2023-11-22T06:52:37;101452.25;;;23.39;35.07
6453;BME280;3259;51.080;13.712;2023-11-22T06:55:27;101465.28;;;23.42;35.01
6453;BME280;3259;51.080;13.712;2023-11-22T06:58:17;101469.91;;;23.40;35.02
6453;BME280;3259;51.080;13.712;2023-11-22T07:01:06;101458.28;;;23.41;35.07
6453;BME280;3259;51.080;13.712;2023-11-22T07:03:58;101459.94;;;23.42;35.31
6453;BME280;3259;51.080;13.712;2023-11-22T07:06:50;101458.44;;;23.39;35.29
6453;BME280;3259;51.080;13.712;2023-11-22T07:09:41;101450.28;;;23.41;34.88
6453;BME280;3259;51.080;13.712;2023-11-22T07:12:32;101446.13;;;23.38;35.18
6453;BME280;3259;51.080;13.712;2023-11-22T07:15:21;101447.63;;;23.41;35.34
6453;BME280;3259;51.080;13.712;2023-11-22T07:18:10;101443.44;;;23.38;35.32
6453;BME280;3259;51.080;13.712;2023-11-22T07:21:01;101447.94;;;23.38;34.91
6453;BME280;3259;51.080;13.712;2023-11-22T07:23:49;101436.59;;;23.36;35.19
6453;BME280;3259;51.080;13.712;2023-11-22T07:26:39;101428.09;;;23.33;35.20
6453;BME280;3259;51.080;13.712;2023-11-22T07:29:30;101433.63;;;23.39;35.17
6453;BME280;3259;51.080;13.712;2023-11-22T07:32:19;101446.78;;;23.40;34.85
6453;BME280;3259;51.080;13.712;2023-11-22T07:35:08;101456.28;;;23.43;34.91
6453;BME280;3259;51.080;13.712;2023-11-22T07:37:58;101464.44;;;23.41;35.06
6453;BME280;3259;51.080;13.712;2023-11-22T07:40:47;101468.94;;;23.41;34.89
6453;BME280;3259;51.080;13.712;2023-11-22T07:43:36;101472.56;;;23.40;34.87
6453;BME280;3259;51.080;13.712;2023-11-22T07:46:26;101497.22;;;23.42;35.15
6453;BME280;3259;51.080;13.712;2023-11-22T07:49:14;101499.19;;;23.40;34.92
6453;BME280;3259;51.080;13.712;2023-11-22T07:52:04;101506.88;;;23.43;34.68
6453;BME280;3259;51.080;13.712;2023-11-22T07:54:53;101508.19;;;23.39;34.76
6453;BME280;3259;51.080;13.712;2023-11-22T07:57:42;101513.50;;;23.39;34.72
6453;BME280;3259;51.080;13.712;2023-11-22T08:00:31;101509.84;;;23.40;34.93
6453;BME280;3259;51.080;13.712;2023-11-22T08:03:22;101512.81;;;23.37;35.18
6453;BME280;3259;51.080;13.712;2023-11-22T08:06:12;101519.19;;;23.44;35.05
6453;BME280;3259;51.080;13.712;2023-11-22T08:09:02;101530.66;;;23.37;34.99
6453;BME280;3259;51.080;13.712;2023-11-22T08:11:51;101540.13;;;23.39;35.05
6453;BME280;3259;51.080;13.712;2023-11-22T08:14:41;101545.16;;;23.42;34.96
6453;BME280;3259;51.080;13.712;2023-11-22T08:17:31;101546.78;;;23.35;34.90
6453;BME280;3259;51.080;13.712;2023-11-22T08:20:21;101550.78;;;23.39;34.81
6453;BME280;3259;51.080;13.712;2023-11-22T08:23:12;101561.13;;;23.42;35.10
6453;BME280;3259;51.080;13.712;2023-11-22T08:26:02;101549.97;;;23.38;35.13
6453;BME280;3259;51.080;13.712;2023-11-22T08:28:51;101553.09;;;23.34;34.93
6453;BME280;3259;51.080;13.712;2023-11-22T08:31:40;101549.44;;;23.35;35.10
6453;BME280;3259;51.080;13.712;2023-11-22T08:34:29;101543.78;;;23.38;34.96
6453;BME280;3259;51.080;13.712;2023-11-22T08:37:19;101543.59;;;23.32;34.88
6453;BME280;3259;51.080;13.712;2023-11-22T08:40:09;101554.75;;;23.35;34.81
6453;BME280;3259;51.080;13.712;2023-11-22T08:43:01;101558.41;;;23.34;34.90
6453;BME280;3259;51.080;13.712;2023-11-22T08:45:51;101548.09;;;23.31;35.13
6453;BME280;3259;51.080;13.712;2023-11-22T08:48:55;101551.09;;;23.36;34.72
6453;BME280;3259;51.080;13.712;2023-11-22T08:51:44;101540.78;;;23.33;35.15
6453;BME280;3259;51.080;13.712;2023-11-22T08:54:34;101535.44;;;23.33;35.15
6453;BME280;3259;51.080;13.712;2023-11-22T08:57:23;101532.94;;;23.32;34.82
6453;BME280;3259;51.080;13.712;2023-11-22T09:00:13;101545.91;;;23.27;35.19
6453;BME280;3259;51.080;13.712;2023-11-22T09:03:02;101537.44;;;23.31;34.74
6453;BME280;3259;51.080;13.712;2023-11-22T09:05:51;101552.25;;;23.33;34.62
6453;BME280;3259;51.080;13.712;2023-11-22T09:08:40;101542.44;;;23.34;34.81
6453;BME280;3259;51.080;13.712;2023-11-22T09:11:30;101546.09;;;23.33;35.15
6453;BME280;3259;51.080;13.712;2023-11-22T09:14:21;101536.44;;;23.32;34.88
6453;BME280;3259;51.080;13.712;2023-11-22T09:17:10;101546.63;;;23.37;34.71
6453;BME280;3259;51.080;13.712;2023-11-22T09:20:00;101556.41;;;23.36;34.69
6453;BME280;3259;51.080;13.712;2023-11-22T09:22:51;101568.06;;;23.35;34.80
6453;BME280;3259;51.080;13.712;2023-11-22T09:25:40;101577.41;;;23.39;34.45
6453;BME280;3259;51.080;13.712;2023-11-22T09:28:30;101573.91;;;23.38;34.81
6453;BME280;3259;51.080;13.712;2023-11-22T09:31:18;101571.41;;;23.37;34.54
6453;BME280;3259;51.080;13.712;2023-11-22T09:34:07;101564.09;;;23.39;34.85
6453;BME280;3259;51.080;13.712;2023-11-22T09:36:56;101575.25;;;23.42;34.68
6453;BME280;3259;51.080;13.712;2023-11-22T09:39:45;101577.94;;;23.42;34.48
6453;BME280;3259;51.080;13.712;2023-11-22T09:42:34;101571.78;;;23.42;34.77
6453;BME280;3259;51.080;13.712;2023-11-22T09:45:24;101562.28;;;23.39;34.97
6453;BME280;3259;51.080;13.712;2023-11-22T09:48:15;101566.75;;;23.39;34.88
6453;BME280;3259;51.080;13.712;2023-11-22T09:51:08;101562.41;;;23.38;34.70
6453;BME280;3259;51.080;13.712;2023-11-22T09:53:58;101554.81;;;23.43;34.51
6453;BME280;3259;51.080;13.712;2023-11-22T09:56:47;101555.59;;;23.36;34.55
6453;BME280;3259;51.080;13.712;2023-11-22T09:59:39;101552.44;;;23.40;34.67
6453;BME280;3259;51.080;13.712;2023-11-22T10:02:30;101551.09;;;23.36;34.71
6453;BME280;3259;51.080;13.712;2023-11-22T10:05:22;101560.09;;;23.35;34.72
6453;BME280;3259;51.080;13.712;2023-11-22T10:08:10;101555.44;;;23.37;34.67
6453;BME280;3259;51.080;13.712;2023-11-22T10:10:59;101553.09;;;23.34;34.84
6453;BME280;3259;51.080;13.712;2023-11-22T10:13:48;101546.41;;;23.30;34.75
6453;BME280;3259;51.080;13.712;2023-11-22T10:16:38;101561.06;;;23.34;34.65
6453;BME280;3259;51.080;13.712;2023-11-22T10:19:28;101569.06;;;23.34;34.92
6453;BME280;3259;51.080;13.712;2023-11-22T10:22:17;101565.06;;;23.30;34.60
6453;BME280;3259;51.080;13.712;2023-11-22T10:25:09;101555.44;;;23.37;34.75
6453;BME280;3259;51.080;13.712;2023-11-22T10:27:59;101556.41;;;23.36;34.82
6453;BME280;3259;51.080;13.712;2023-11-22T10:30:49;101550.28;;;23.36;34.71
6453;BME280;3259;51.080;13.712;2023-11-22T10:33:39;101543.25;;;23.34;34.66
6453;BME280;3259;51.080;13.712;2023-11-22T10:36:30;101543.59;;;23.32;34.92
6453;BME280;3259;51.080;13.712;2023-11-22T10:39:19;101541.28;;;23.37;34.80
6453;BME280;3259;51.080;13.712;2023-11-22T10:42:09;101545.78;;;23.36;34.68
6453;BME280;3259;51.080;13.712;2023-11-22T10:44:59;101531.78;;;23.34;34.79
6453;BME280;3259;51.080;13.712;2023-11-22T10:47:51;101520.78;;;23.29;34.74
6453;BME280;3259;51.080;13.712;2023-11-22T10:50:43;101541.44;;;23.35;34.58
6453;BME280;3259;51.080;13.712;2023-11-22T10:53:35;101533.47;;;23.35;34.81
6453;BME280;3259;51.080;13.712;2023-11-22T10:56:25;101544.91;;;23.28;34.71
6453;BME280;3259;51.080;13.712;2023-11-22T10:59:15;101539.72;;;23.26;34.87
6453;BME280;3259;51.080;13.712;2023-11-22T11:02:09;101541.78;;;23.40;34.70
6453;BME280;3259;51.080;13.712;2023-11-22T11:05:15;101549.50;;;23.43;34.63
6453;BME280;3259;51.080;13.712;2023-11-22T11:08:08;101565.75;;;23.40;34.41
6453;BME280;3259;51.080;13.712;2023-11-22T11:10:59;101576.06;;;23.35;34.59
6453;BME280;3259;51.080;13.712;2023-11-22T11:13:51;101588.91;;;23.39;34.56
6453;BME280;3259;51.080;13.712;2023-11-22T11:16:40;101599.88;;;23.37;34.55
6453;BME280;3259;51.080;13.712;2023-11-22T11:19:36;101599.56;;;23.39;34.59
6453;BME280;3259;51.080;13.712;2023-11-22T11:22:27;101600.38;;;23.40;34.43
6453;BME280;3259;51.080;13.712;2023-11-22T11:25:16;101603.03;;;23.40;34.35
6453;BME280;3259;51.080;13.712;2023-11-22T11:28:10;101603.69;;;23.34;34.67
6453;BME280;3259;51.080;13.712;2023-11-22T11:31:00;101602.38;;;23.38;34.32
6453;BME280;3259;51.080;13.712;2023-11-22T11:33:55;101588.91;;;23.39;34.53
6453;BME280;3259;51.080;13.712;2023-11-22T11:36:52;101578.38;;;23.30;34.63
6453;BME280;3259;51.080;13.712;2023-11-22T11:39:41;101581.25;;;23.37;34.56
6453;BME280;3259;51.080;13.712;2023-11-22T11:42:30;101584.72;;;23.37;34.46
6453;BME280;3259;51.080;13.712;2023-11-22T11:45:21;101591.72;;;23.38;34.60
6453;BME280;3259;51.080;13.712;2023-11-22T11:48:09;101595.16;;;23.31;34.38
6453;BME280;3259;51.080;13.712;2023-11-22T11:51:00;101596.00;;;23.31;34.66
6453;BME280;3259;51.080;13.712;2023-11-22T11:53:49;101601.34;;;23.31;34.50
6453;BME280;3259;51.080;13.712;2023-11-22T11:56:38;101604.34;;;23.36;34.79
6453;BME280;3259;51.080;13.712;2023-11-22T11:59:27;101596.38;;;23.36;34.43
6453;BME280;3259;51.080;13.712;2023-11-22T12:02:21;101599.66;;;23.30;34.50
6453;BME280;3259;51.080;13.712;2023-11-22T12:05:10;101594.03;;;23.33;34.44
6453;BME280;3259;51.080;13.712;2023-11-22T12:08:00;101594.63;;;23.27;34.57
6453;BME280;3259;51.080;13.712;2023-11-22T12:10:49;101595.00;;;23.32;34.50
6453;BME280;3259;51.080;13.712;2023-11-22T12:13:38;101591.97;;;23.27;34.37
6453;BME280;3259;51.080;13.712;2023-11-22T12:16:30;101583.38;;;23.33;34.37
6453;BME280;3259;51.080;13.712;2023-11-22T12:19:23;101579.38;;;23.37;34.32
6453;BME280;3259;51.080;13.712;2023-11-22T12:22:13;101570.53;;;23.29;34.64
6453;BME280;3259;51.080;13.712;2023-11-22T12:25:03;101566.13;;;23.45;34.01
6453;BME280;3259;51.080;13.712;2023-11-22T12:27:54;101562.81;;;23.43;34.06
6453;BME280;3259;51.080;13.712;2023-11-22T12:30:43;101548.69;;;23.25;34.65
6453;BME280;3259;51.080;13.712;2023-11-22T12:33:32;101556.53;;;23.27;34.85
6453;BME280;3259;51.080;13.712;2023-11-22T12:36:23;101558.00;;;23.21;34.58
6453;BME280;3259;51.080;13.712;2023-11-22T12:39:12;101541.72;;;23.24;34.62
6453;BME280;3259;51.080;13.712;2023-11-22T12:42:04;101527.09;;;23.28;34.68
6453;BME280;3259;51.080;13.712;2023-11-22T12:44:57;101534.44;;;23.34;34.78
6453;BME280;3259;51.080;13.712;2023-11-22T12:47:46;101539.44;;;23.29;34.37
6453;BME280;3259;51.080;13.712;2023-11-22T12:50:37;101535.56;;;23.24;34.54
6453;BME280;3259;51.080;13.712;2023-11-22T12:53:28;101525.75;;;23.24;34.77
6453;BME280;3259;51.080;13.712;2023-11-22T12:56:17;101524.59;;;23.27;34.56
6453;BME280;3259;51.080;13.712;2023-11-22T12:59:06;101524.91;;;23.24;33.76
6453;BME280;3259;51.080;13.712;2023-11-22T13:01:55;101519.28;;;23.27;33.14
6453;BME280;3259;51.080;13.712;2023-11-22T13:04:48;101515.28;;;23.31;32.83
6453;BME280;3259;51.080;13.712;2023-11-22T13:07:37;101530.53;;;23.21;33.02
6453;BME280;3259;51.080;13.712;2023-11-22T13:10:31;101538.38;;;23.22;33.71
6453;BME280;3259;51.080;13.712;2023-11-22T13:13:20;101526.78;;;23.31;33.57
6453;BME280;3259;51.080;13.712;2023-11-22T13:16:09;101524.41;;;23.20;33.87
6453;BME280;3259;51.080;13.712;2023-11-22T13:18:57;101513.50;;;23.39;34.02
6453;BME280;3259;51.080;13.712;2023-11-22T13:21:46;101516.25;;;23.55;33.51
6453;BME280;3259;51.080;13.712;2023-11-22T13:24:36;101511.72;;;23.47;33.39
6453;BME280;3259;51.080;13.712;2023-11-22T13:27:26;101509.25;;;23.54;32.95
6453;BME280;3259;51.080;13.712;2023-11-22T13:30:16;101519.75;;;23.55;33.47
6453;BME280;3259;51.080;13.712;2023-11-22T13:33:07;101536.09;;;23.68;33.86
6453;BME280;3259;51.080;13.712;2023-11-22T13:35:57;101538.28;;;23.65;33.86
6453;BME280;3259;51.080;13.712;2023-11-22T13:38:46;101534.91;;;23.55;30.38
6453;BME280;3259;51.080;13.712;2023-11-22T13:41:34;101539.56;;;23.53;27.82
6453;BME280;3259;51.080;13.712;2023-11-22T13:44:25;101533.34;;;23.44;28.00
6453;BME280;3259;51.080;13.712;2023-11-22T13:47:13;101560.13;;;23.43;29.26
6453;BME280;3259;51.080;13.712;2023-11-22T13:50:02;101569.47;;;23.47;30.31
6453;BME280;3259;51.080;13.712;2023-11-22T13:52:52;101560.88;;;23.61;30.95
6453;BME280;3259;51.080;13.712;2023-11-22T13:55:41;101556.28;;;23.71;31.29
6453;BME280;3259;51.080;13.712;2023-11-22T13:58:30;101544.22;;;23.59;31.35
6453;BME280;3259;51.080;13.712;2023-11-22T14:01:20;101557.88;;;23.56;31.62
6453;BME280;3259;51.080;13.712;2023-11-22T14:04:09;101565.44;;;23.76;32.05
6453;BME280;3259;51.080;13.712;2023-11-22T14:06:58;101563.97;;;23.82;32.02
6453;BME280;3259;51.080;13.712;2023-11-22T14:09:47;101566.34;;;23.85;32.10
6453;BME280;3259;51.080;13.712;2023-11-22T14:12:37;101560.72;;;23.96;31.71
6453;BME280;3259;51.080;13.712;2023-11-22T14:15:26;101567.72;;;23.97;32.07
6453;BME280;3259;51.080;13.712;2023-11-22T14:18:17;101560.09;;;24.10;32.51
6453;BME280;3259;51.080;13.712;2023-11-22T14:21:06;101541.81;;;24.15;31.96
6453;BME280;3259;51.080;13.712;2023-11-22T14:23:55;101534.78;;;24.22;32.31
6453;BME280;3259;51.080;13.712;2023-11-22T14:26:44;101539.66;;;24.18;32.09
6453;BME280;3259;51.080;13.712;2023-11-22T14:29:36;101532.13;;;24.22;32.24
6453;BME280;3259;51.080;13.712;2023-11-22T14:32:25;101531.47;;;24.20;32.42
6453;BME280;3259;51.080;13.712;2023-11-22T14:35:16;101529.63;;;24.28;32.39
6453;BME280;3259;51.080;13.712;2023-11-22T14:38:05;101526.19;;;24.36;32.02
6453;BME280;3259;51.080;13.712;2023-11-22T14:40:55;101509.50;;;24.26;32.09
6453;BME280;3259;51.080;13.712;2023-11-22T14:43:44;101506.81;;;24.34;32.32
6453;BME280;3259;51.080;13.712;2023-11-22T14:46:33;101504.16;;;24.26;32.97
6453;BME280;3259;51.080;13.712;2023-11-22T14:52:14;101509.97;;;24.21;30.96
6453;BME280;3259;51.080;13.712;2023-11-22T14:55:03;101500.81;;;24.24;31.20
6453;BME280;3259;51.080;13.712;2023-11-22T14:57:52;101506.13;;;24.24;31.86
6453;BME280;3259;51.080;13.712;2023-11-22T15:00:44;101505.81;;;24.27;32.12